Time;durP1;ratioP1;P1;durP2;ratioP2;P2;SDS_P1;SDS_P2;PMS_P1;PMS_P2;Temp;Humidity;BMP_temperature;BMP_pressure;BME280_temperature;BME280_humidity;BME280_pressure;Samples;Min_cycle;Max_cycle;Signal;HPM_P1;HPM_P2
2023/03/01 00:00:17;;;;;;;23.40;14.18;;;-0.60;1.00;;;;;;7388724;19;20021;-69
2023/03/01 00:02:47;;;;;;;27.58;15.20;;;-0.60;1.00;;;;;;7365946;19;20006;-69
2023/03/01 00:05:17;;;;;;;23.50;13.68;;;-0.60;1.00;;;;;;7366623;19;20020;-70
2023/03/01 00:07:46;;;;;;;25.80;14.00;;;-0.70;1.00;;;;;;7366798;19;20700;-70
2023/03/01 00:10:19;;;;;;;26.33;14.60;;;-0.80;1.00;;;;;;7363796;19;20011;-70
2023/03/01 00:12:49;;;;;;;21.27;12.98;;;-0.80;1.00;;;;;;7367079;19;20015;-69
2023/03/01 00:15:19;;;;;;;27.15;14.07;;;-0.80;1.00;;;;;;7387502;19;20015;-70
2023/03/01 00:17:49;;;;;;;23.45;13.63;;;-0.80;1.00;;;;;;7367262;19;20032;-70
2023/03/01 00:20:19;;;;;;;22.30;13.15;;;-0.80;1.00;;;;;;7362773;19;20017;-70
2023/03/01 00:22:49;;;;;;;24.13;13.57;;;-0.90;1.00;;;;;;7366882;19;20042;-70
2023/03/01 00:25:21;;;;;;;25.98;14.57;;;-0.80;1.00;;;;;;7365861;19;20022;-69
2023/03/01 00:27:51;;;;;;;27.42;13.63;;;-0.80;1.00;;;;;;7367449;19;20689;-69
2023/03/01 00:30:21;;;;;;;28.23;14.95;;;-0.80;1.00;;;;;;7387058;19;20018;-70
2023/03/01 00:32:51;;;;;;;25.63;13.93;;;-0.80;1.00;;;;;;7363473;19;20010;-70
2023/03/01 00:35:22;;;;;;;25.90;13.70;;;-0.90;1.00;;;;;;7367119;19;20347;-70
2023/03/01 00:37:57;;;;;;;27.25;14.85;;;-0.90;1.00;;;;;;7365958;19;20018;-70
2023/03/01 00:40:30;;;;;;;24.55;14.38;;;-1.00;1.00;;;;;;7362765;19;20461;-71
2023/03/01 00:43:01;;;;;;;24.30;15.03;;;-1.00;1.00;;;;;;7366275;19;20078;-70
2023/03/01 00:45:31;;;;;;;24.38;14.75;;;-1.00;1.00;;;;;;7365590;19;20271;-71
2023/03/01 00:48:00;;;;;;;28.73;14.68;;;-1.00;1.00;;;;;;7389193;19;20048;-70
2023/03/01 00:50:31;;;;;;;28.13;14.35;;;-1.00;1.00;;;;;;7361736;19;20018;-71
2023/03/01 00:53:01;;;;;;;23.35;12.73;;;-1.00;1.00;;;;;;7362637;19;20012;-70
2023/03/01 00:55:33;;;;;;;23.45;13.20;;;-1.00;1.00;;;;;;7367688;19;20011;-70
2023/03/01 00:58:03;;;;;;;27.55;15.77;;;-1.00;1.00;;;;;;7367419;19;20022;-70
2023/03/01 01:00:33;;;;;;;24.35;14.23;;;-1.00;1.00;;;;;;7360576;19;20018;-70
2023/03/01 01:03:03;;;;;;;23.60;13.95;;;-1.00;1.00;;;;;;7387145;19;20006;-70
2023/03/01 01:05:33;;;;;;;27.48;15.00;;;-0.90;1.00;;;;;;7367833;19;20026;-70
2023/03/01 01:08:02;;;;;;;27.10;14.35;;;-0.90;1.00;;;;;;7363717;19;20778;-69
2023/03/01 01:10:36;;;;;;;29.50;15.07;;;-0.90;1.00;;;;;;7361635;19;20021;-71
2023/03/01 01:13:06;;;;;;;24.30;14.75;;;-0.90;1.00;;;;;;7362642;19;20014;-69
2023/03/01 01:15:37;;;;;;;27.48;15.07;;;-0.90;1.00;;;;;;7363504;19;20010;-70
2023/03/01 01:18:06;;;;;;;24.85;14.05;;;-0.90;1.00;;;;;;7389894;19;20014;-70
2023/03/01 01:20:38;;;;;;;26.88;14.57;;;-0.90;1.00;;;;;;7359387;19;20090;-70
2023/03/01 01:23:09;;;;;;;25.88;14.98;;;-0.80;1.00;;;;;;7363808;19;20017;-70
2023/03/01 01:25:41;;;;;;;30.23;16.05;;;-0.90;1.00;;;;;;7364819;19;20014;-69
2023/03/01 01:28:11;;;;;;;25.60;14.15;;;-1.00;1.00;;;;;;7366981;19;20021;-69
2023/03/01 01:30:41;;;;;;;28.27;16.00;;;-1.00;1.00;;;;;;7367946;19;20018;-69
2023/03/01 01:33:10;;;;;;;26.35;15.25;;;-1.00;1.00;;;;;;7387633;19;20021;-69
2023/03/01 01:35:40;;;;;;;25.15;13.88;;;-1.10;1.00;;;;;;7363487;19;20021;-70
2023/03/01 01:38:10;;;;;;;27.48;15.23;;;-1.10;1.00;;;;;;7363860;19;20022;-70
2023/03/01 01:40:49;;;;;;;26.75;15.48;;;-1.20;1.00;;;;;;7360085;19;20182;-69
2023/03/01 01:43:26;;;;;;;26.50;14.90;;;-1.20;1.00;;;;;;7363495;19;20093;-70
2023/03/01 01:45:59;;;;;;;26.83;15.90;;;-1.10;1.00;;;;;;7363050;19;20113;-69
2023/03/01 01:48:40;;;;;;;28.08;16.02;;;-1.10;1.00;;;;;;7366546;19;20085;-70
2023/03/01 01:51:14;;;;;;;28.10;15.27;;;-1.10;1.00;;;;;;7385667;19;20031;-70
2023/03/01 01:53:47;;;;;;;25.48;14.52;;;-1.00;1.00;;;;;;7365281;19;20010;-69
2023/03/01 01:56:21;;;;;;;27.30;14.80;;;-1.00;1.00;;;;;;7363465;19;20006;-69
2023/03/01 01:58:51;;;;;;;28.67;14.77;;;-1.10;1.00;;;;;;7362757;19;20034;-70
2023/03/01 02:01:22;;;;;;;26.23;15.20;;;-1.00;1.00;;;;;;7362329;19;20376;-70
2023/03/01 02:03:51;;;;;;;27.10;15.07;;;-1.00;1.00;;;;;;7365669;19;20014;-69
2023/03/01 02:06:29;;;;;;;27.33;15.18;;;-1.00;1.00;;;;;;7385795;19;20029;-70
2023/03/01 02:09:02;;;;;;;29.33;17.17;;;-1.00;1.00;;;;;;7361093;19;20014;-70
2023/03/01 02:11:37;;;;;;;23.10;13.88;;;-0.90;1.00;;;;;;7373702;19;20019;-70
2023/03/01 02:14:08;;;;;;;29.75;14.95;;;-1.00;1.00;;;;;;7374101;19;20015;-70
2023/03/01 02:16:38;;;;;;;27.90;15.05;;;-0.90;1.00;;;;;;7372027;19;20448;-65
2023/03/01 02:19:09;;;;;;;30.45;15.60;;;-0.90;1.00;;;;;;7362432;19;20011;-69
2023/03/01 02:21:49;;;;;;;29.15;15.32;;;-0.90;1.00;;;;;;7362251;19;20018;-70
2023/03/01 02:24:28;;;;;;;25.00;14.70;;;-0.90;1.00;;;;;;7386668;19;20013;-70
2023/03/01 02:27:01;;;;;;;26.67;14.75;;;-0.80;1.00;;;;;;7363157;19;20015;-70
2023/03/01 02:29:33;;;;;;;27.17;15.05;;;-0.50;1.00;;;;;;7361445;19;20014;-70
2023/03/01 02:32:03;;;;;;;27.40;16.95;;;-0.50;1.00;;;;;;7360462;19;20351;-69
2023/03/01 02:34:34;;;;;;;32.50;16.02;;;-0.50;1.00;;;;;;7362841;19;20215;-70
2023/03/01 02:37:07;;;;;;;27.80;15.45;;;-0.50;1.00;;;;;;7361217;19;20007;-70
2023/03/01 02:39:42;;;;;;;28.58;15.82;;;-0.60;1.00;;;;;;7359363;19;20103;-70
2023/03/01 02:42:15;;;;;;;26.10;14.77;;;-0.50;1.00;;;;;;7382745;19;20113;-71
2023/03/01 02:44:48;;;;;;;27.90;14.65;;;-0.50;1.00;;;;;;7363970;19;20014;-70
2023/03/01 02:47:18;;;;;;;28.65;15.10;;;-0.50;1.00;;;;;;7362733;19;20088;-69
2023/03/01 02:49:48;;;;;;;27.77;15.18;;;-0.40;1.00;;;;;;7359973;19;20014;-70
2023/03/01 02:52:40;;;;;;;27.55;15.60;;;-0.40;1.00;;;;;;7360092;19;20014;-70
2023/03/01 02:55:13;;;;;;;26.08;15.13;;;-0.40;1.00;;;;;;7363140;19;20010;-69
2023/03/01 02:57:46;;;;;;;29.58;15.80;;;-0.30;1.00;;;;;;7363102;19;20370;-69
2023/03/01 03:00:23;;;;;;;26.23;14.95;;;-0.20;1.00;;;;;;7379571;19;20025;-69
2023/03/01 03:02:56;;;;;;;26.60;15.48;;;-0.20;1.00;;;;;;7359985;19;20018;-69
2023/03/01 03:05:28;;;;;;;24.65;14.60;;;-0.20;1.00;;;;;;7361389;19;20324;-69
2023/03/01 03:07:59;;;;;;;29.50;15.80;;;-0.20;1.00;;;;;;7360328;19;20922;-70
2023/03/01 03:10:32;;;;;;;28.98;15.48;;;-0.20;1.00;;;;;;7357845;19;20010;-69
2023/03/01 03:13:03;;;;;;;29.48;15.40;;;-0.20;1.00;;;;;;7359223;19;20049;-69
2023/03/01 03:15:38;;;;;;;28.15;15.88;;;-0.20;1.00;;;;;;7360308;19;20542;-70
2023/03/01 03:18:12;;;;;;;27.85;15.65;;;-0.20;1.00;;;;;;7386191;19;20078;-69
2023/03/01 03:20:43;;;;;;;29.60;15.27;;;-0.20;1.00;;;;;;7359607;19;20496;-69
2023/03/01 03:23:14;;;;;;;27.40;15.10;;;-0.20;1.00;;;;;;7356908;19;20085;-69
2023/03/01 03:25:44;;;;;;;28.25;15.00;;;-0.20;1.00;;;;;;7361272;19;20023;-69
2023/03/01 03:28:15;;;;;;;28.10;15.13;;;-0.20;1.00;;;;;;7361218;19;20022;-68
2023/03/01 03:30:49;;;;;;;29.38;14.80;;;-0.20;1.00;;;;;;7357420;19;20033;-69
2023/03/01 03:33:19;;;;;;;27.73;14.57;;;-0.20;1.00;;;;;;7382476;19;20753;-70
2023/03/01 03:35:51;;;;;;;27.27;15.27;;;-0.20;1.00;;;;;;7362276;19;20364;-70
2023/03/01 03:38:22;;;;;;;29.85;16.30;;;-0.20;1.00;;;;;;7360113;19;20817;-69
2023/03/01 03:40:54;;;;;;;25.98;14.20;;;-0.20;1.00;;;;;;7358662;19;20015;-69
2023/03/01 03:43:25;;;;;;;27.83;15.45;;;-0.20;1.00;;;;;;7359806;19;20022;-69
2023/03/01 03:45:59;;;;;;;24.92;15.20;;;-0.20;1.00;;;;;;7361660;19;20018;-71
2023/03/01 03:48:29;;;;;;;26.27;15.20;;;-0.20;1.00;;;;;;7362791;19;20031;-70
2023/03/01 03:50:59;;;;;;;29.20;15.32;;;-0.20;1.00;;;;;;7379441;19;20025;-70
2023/03/01 03:53:31;;;;;;;30.05;16.35;;;-0.20;1.00;;;;;;7357732;19;20098;-69
2023/03/01 03:56:01;;;;;;;28.92;16.08;;;-0.10;1.00;;;;;;7358768;19;20510;-69
2023/03/01 03:58:31;;;;;;;25.63;13.75;;;-0.20;1.00;;;;;;7360215;19;20086;-69
2023/03/01 04:01:05;;;;;;;25.70;15.00;;;-0.10;1.00;;;;;;7358705;19;20134;-69
2023/03/01 04:03:35;;;;;;;26.00;14.77;;;-0.10;1.00;;;;;;7358800;19;20351;-69
2023/03/01 04:06:06;;;;;;;26.50;14.80;;;-0.10;1.00;;;;;;7379201;19;20006;-68
2023/03/01 04:08:36;;;;;;;25.08;14.45;;;-0.10;1.00;;;;;;7356915;19;20547;-69
2023/03/01 04:13:49;;;;;;;28.20;15.95;;;-0.10;1.00;;;;;;7357481;19;20073;-68
2023/03/01 04:16:22;;;;;;;26.33;15.07;;;-0.10;1.00;;;;;;7358355;19;20010;-69
2023/03/01 04:18:53;;;;;;;24.48;14.32;;;-0.10;1.00;;;;;;7357526;19;20018;-68
2023/03/01 04:21:23;;;;;;;28.45;15.65;;;-0.10;1.00;;;;;;7382620;19;20010;-69
2023/03/01 04:23:53;;;;;;;26.48;15.50;;;-0.10;1.00;;;;;;7363347;19;20483;-69
2023/03/01 04:26:23;;;;;;;27.20;15.15;;;-0.10;1.00;;;;;;7357743;19;20026;-69
2023/03/01 04:28:53;;;;;;;28.67;15.65;;;-0.10;1.00;;;;;;7360233;19;20438;-70
2023/03/01 04:31:25;;;;;;;27.52;15.32;;;0.00;1.00;;;;;;7357897;19;20011;-69
2023/03/01 04:33:57;;;;;;;26.85;15.15;;;-0.10;1.00;;;;;;7357236;19;20022;-68
2023/03/01 04:36:29;;;;;;;28.60;14.95;;;-0.10;1.00;;;;;;7368826;19;20010;-69
2023/03/01 04:39:05;;;;;;;27.75;16.00;;;-0.10;1.00;;;;;;7384772;19;20021;-68
2023/03/01 04:41:43;;;;;;;29.88;15.40;;;-0.10;1.00;;;;;;7368685;19;20109;-69
2023/03/01 04:44:13;;;;;;;30.83;16.15;;;0.00;1.00;;;;;;7365523;19;20043;-69
2023/03/01 04:46:46;;;;;;;28.33;15.40;;;-0.10;1.00;;;;;;7366687;19;20085;-69
2023/03/01 04:49:15;;;;;;;27.85;15.23;;;-0.10;1.00;;;;;;7362848;19;20021;-69
2023/03/01 04:51:45;;;;;;;27.90;15.35;;;-0.20;1.00;;;;;;7365021;19;20025;-69
2023/03/01 04:54:16;;;;;;;29.73;15.88;;;-0.20;1.00;;;;;;7386515;19;20011;-69
2023/03/01 04:56:45;;;;;;;27.08;14.48;;;-0.20;1.00;;;;;;7364098;19;20459;-68
2023/03/01 04:59:15;;;;;;;29.00;15.07;;;-0.20;1.00;;;;;;7362202;19;20022;-68
2023/03/01 05:01:48;;;;;;;28.30;15.90;;;-0.10;1.00;;;;;;7365240;19;20070;-68
2023/03/01 05:04:18;;;;;;;27.00;15.25;;;-0.20;1.00;;;;;;7365492;19;20018;-68
2023/03/01 05:06:47;;;;;;;29.02;16.10;;;-0.20;1.00;;;;;;7364964;19;20003;-69
2023/03/01 05:09:17;;;;;;;26.65;15.18;;;-0.20;1.00;;;;;;7383023;19;20019;-68
2023/03/01 05:11:47;;;;;;;28.67;15.60;;;-0.20;1.00;;;;;;7363417;19;20478;-68
2023/03/01 05:14:17;;;;;;;30.80;15.68;;;-0.20;1.00;;;;;;7363741;19;20021;-68
2023/03/01 05:16:50;;;;;;;30.98;16.70;;;-0.20;1.00;;;;;;7365355;19;20486;-68
2023/03/01 05:19:22;;;;;;;32.90;16.52;;;-0.20;1.00;;;;;;7361908;19;20494;-68
2023/03/01 05:22:04;;;;;;;26.23;15.85;;;-0.20;1.00;;;;;;7363610;19;20083;-68
2023/03/01 05:24:36;;;;;;;27.40;15.55;;;-0.20;1.00;;;;;;7365920;19;20014;-67
2023/03/01 05:27:06;;;;;;;31.23;15.65;;;-0.30;1.00;;;;;;7386358;19;20011;-68
2023/03/01 05:29:36;;;;;;;24.60;13.95;;;-0.20;1.00;;;;;;7363009;19;20043;-68
2023/03/01 05:32:08;;;;;;;32.20;16.35;;;-0.20;1.00;;;;;;7363972;19;20102;-68
2023/03/01 05:34:39;;;;;;;27.40;14.27;;;-0.30;1.00;;;;;;7364021;19;20022;-69
2023/03/01 05:37:09;;;;;;;28.40;15.82;;;-0.30;1.00;;;;;;7366777;19;20031;-69
2023/03/01 05:39:39;;;;;;;29.48;15.88;;;-0.30;1.00;;;;;;7365137;19;20018;-68
2023/03/01 05:42:09;;;;;;;26.42;15.43;;;-0.50;1.00;;;;;;7384378;19;20042;-68
2023/03/01 05:44:40;;;;;;;30.90;16.02;;;-0.50;1.00;;;;;;7368336;19;20078;-70
2023/03/01 05:47:13;;;;;;;24.92;14.57;;;-0.60;1.00;;;;;;7377723;19;20493;-69
2023/03/01 05:49:42;;;;;;;27.65;15.57;;;-0.70;1.00;;;;;;7368141;19;20015;-70
2023/03/01 05:52:12;;;;;;;28.60;15.57;;;-0.70;1.00;;;;;;7369690;19;20438;-69
2023/03/01 05:54:42;;;;;;;33.90;16.02;;;-0.80;1.00;;;;;;7364387;19;20021;-69
2023/03/01 05:57:12;;;;;;;24.10;14.25;;;-0.80;1.00;;;;;;7385801;19;20021;-69
2023/03/01 05:59:41;;;;;;;26.58;14.43;;;-0.80;1.00;;;;;;7359376;19;20021;-70
2023/03/01 06:02:14;;;;;;;31.52;16.50;;;-0.80;1.00;;;;;;7362161;19;20014;-69
2023/03/01 06:04:44;;;;;;;27.98;14.73;;;-0.90;1.00;;;;;;7362969;19;20574;-69
2023/03/01 06:07:14;;;;;;;28.77;15.10;;;-0.90;1.00;;;;;;7363100;19;20010;-69
2023/03/01 06:09:44;;;;;;;28.73;15.75;;;-0.90;1.00;;;;;;7359109;19;20036;-70
2023/03/01 06:12:14;;;;;;;28.85;16.42;;;-0.90;1.00;;;;;;7384642;19;20010;-68
2023/03/01 06:14:43;;;;;;;31.52;15.70;;;-0.90;1.00;;;;;;7363767;19;20506;-68
2023/03/01 06:17:16;;;;;;;33.58;16.27;;;-0.90;1.00;;;;;;7363628;19;20612;-68
2023/03/01 06:19:46;;;;;;;32.00;16.60;;;-0.90;1.00;;;;;;7358221;19;20134;-70
2023/03/01 06:22:15;;;;;;;31.88;16.48;;;-0.80;1.00;;;;;;7361402;19;20018;-69
2023/03/01 06:24:45;;;;;;;32.28;16.73;;;-0.70;1.00;;;;;;7363421;19;20022;-70
2023/03/01 06:27:15;;;;;;;33.15;16.02;;;-0.80;1.00;;;;;;7383942;19;20006;-69
2023/03/01 06:29:45;;;;;;;30.02;16.65;;;-0.80;1.00;;;;;;7360667;19;20018;-69
2023/03/01 06:32:18;;;;;;;26.40;15.98;;;-0.70;1.00;;;;;;7362298;19;20488;-69
2023/03/01 06:34:48;;;;;;;32.85;17.35;;;-0.80;1.00;;;;;;7362091;19;20091;-69
2023/03/01 06:37:18;;;;;;;29.27;16.13;;;-0.80;1.00;;;;;;7361407;19;20078;-69
2023/03/01 06:39:47;;;;;;;27.52;14.85;;;-0.90;1.00;;;;;;7358224;19;20124;-70
2023/03/01 06:42:17;;;;;;;32.38;16.85;;;-0.90;1.00;;;;;;7380717;19;20044;-69
2023/03/01 06:44:48;;;;;;;30.65;16.38;;;-0.90;1.00;;;;;;7361843;19;20018;-69
2023/03/01 06:47:20;;;;;;;31.05;16.73;;;-0.90;1.00;;;;;;7362259;19;20042;-68
2023/03/01 06:49:50;;;;;;;30.63;16.05;;;-0.90;1.00;;;;;;7357743;19;20098;-69
2023/03/01 06:52:20;;;;;;;32.60;16.27;;;-0.90;1.00;;;;;;7361170;19;20014;-70
2023/03/01 06:54:49;;;;;;;28.83;15.98;;;-0.90;1.00;;;;;;7361088;19;20026;-69
2023/03/01 06:57:19;;;;;;;29.35;16.42;;;-0.80;1.00;;;;;;7384026;19;20027;-69
2023/03/01 06:59:49;;;;;;;29.70;15.80;;;-0.80;1.00;;;;;;7356301;19;20090;-69
2023/03/01 07:02:22;;;;;;;28.77;16.80;;;-0.70;1.00;;;;;;7360385;19;20347;-69
2023/03/01 07:04:52;;;;;;;34.20;17.33;;;-0.60;1.00;;;;;;7361410;19;20018;-68
2023/03/01 07:07:22;;;;;;;35.83;17.85;;;-0.50;1.00;;;;;;7361048;19;20019;-69
2023/03/01 07:09:53;;;;;;;33.42;17.88;;;-0.50;1.00;;;;;;7359058;19;20018;-69
2023/03/01 07:12:22;;;;;;;33.58;17.85;;;-0.40;1.00;;;;;;7384280;19;20546;-71
2023/03/01 07:14:54;;;;;;;36.97;17.83;;;-0.30;1.00;;;;;;7360988;19;20608;-68
2023/03/01 07:17:27;;;;;;;36.22;17.77;;;-0.30;1.00;;;;;;7361393;19;20011;-68
2023/03/01 07:19:56;;;;;;;40.63;19.85;;;-0.20;1.00;;;;;;7355506;19;20022;-70
2023/03/01 07:22:26;;;;;;;31.38;16.65;;;-0.10;1.00;;;;;;7359137;19;20500;-70
2023/03/01 07:24:56;;;;;;;35.20;17.15;;;-0.20;1.00;;;;;;7359824;19;20014;-69
2023/03/01 07:27:26;;;;;;;33.40;17.20;;;-0.10;1.00;;;;;;7382332;19;20613;-69
2023/03/01 07:29:56;;;;;;;34.53;17.52;;;-0.10;1.00;;;;;;7350769;19;20470;-69
2023/03/01 07:32:28;;;;;;;34.38;17.05;;;0.00;1.00;;;;;;7358073;19;20206;-68
2023/03/01 07:34:58;;;;;;;30.35;15.95;;;0.10;1.00;;;;;;7358173;19;20070;-68
2023/03/01 07:37:28;;;;;;;33.00;17.58;;;0.00;1.00;;;;;;7359528;19;20572;-69
2023/03/01 07:39:58;;;;;;;33.38;18.27;;;0.10;1.00;;;;;;7355832;19;20010;-68
2023/03/01 07:42:28;;;;;;;30.05;16.48;;;0.00;1.00;;;;;;7361899;19;20014;-68
2023/03/01 07:44:58;;;;;;;34.60;16.75;;;0.10;1.00;;;;;;7381050;19;20015;-70
2023/03/01 07:47:30;;;;;;;35.17;18.88;;;0.10;1.00;;;;;;7359089;19;20033;-69
2023/03/01 07:50:00;;;;;;;33.28;16.48;;;0.10;1.00;;;;;;7354460;19;20015;-68
2023/03/01 07:52:30;;;;;;;29.75;17.92;;;0.20;1.00;;;;;;7358264;19;20033;-68
2023/03/01 07:55:00;;;;;;;34.65;17.15;;;0.10;1.00;;;;;;7357380;19;20082;-68
2023/03/01 07:57:31;;;;;;;36.50;17.80;;;0.10;1.00;;;;;;7361079;19;20379;-68
2023/03/01 08:00:01;;;;;;;30.13;15.82;;;0.30;1.00;;;;;;7374780;19;20482;-69
2023/03/01 08:02:33;;;;;;;31.77;16.92;;;0.20;1.00;;;;;;7357151;19;20015;-69
2023/03/01 08:05:03;;;;;;;30.75;16.63;;;0.20;1.00;;;;;;7360466;19;20011;-69
2023/03/01 08:07:33;;;;;;;32.22;16.15;;;0.30;1.00;;;;;;7359777;19;20014;-69
2023/03/01 08:10:03;;;;;;;34.58;16.08;;;0.30;1.00;;;;;;7354838;19;20475;-69
2023/03/01 08:12:32;;;;;;;39.72;18.35;;;0.40;1.00;;;;;;7357598;19;20014;-68
2023/03/01 08:15:02;;;;;;;32.88;15.85;;;0.50;1.00;;;;;;7387616;19;20517;-68
2023/03/01 08:17:34;;;;;;;35.05;17.10;;;0.60;1.00;;;;;;7367388;19;20488;-70
2023/03/01 08:20:06;;;;;;;34.13;15.63;;;0.70;1.00;;;;;;7361961;19;20018;-69
2023/03/01 08:22:36;;;;;;;33.15;16.75;;;0.60;1.00;;;;;;7364545;19;20596;-69
2023/03/01 08:25:07;;;;;;;31.00;17.15;;;0.70;1.00;;;;;;7365593;19;20010;-69
2023/03/01 08:27:37;;;;;;;31.33;16.55;;;0.70;1.00;;;;;;7367648;19;20011;-69
2023/03/01 08:30:08;;;;;;;35.55;17.35;;;0.80;1.00;;;;;;7386653;19;20015;-69
2023/03/01 08:32:42;;;;;;;32.15;16.13;;;0.80;1.00;;;;;;7363612;19;20018;-69
2023/03/01 08:35:12;;;;;;;37.80;18.25;;;1.00;1.00;;;;;;7365287;19;20025;-69
2023/03/01 08:37:42;;;;;;;32.05;16.73;;;1.00;1.00;;;;;;7365703;19;20018;-69
2023/03/01 08:40:13;;;;;;;31.77;16.80;;;1.00;1.00;;;;;;7361057;19;20364;-69
2023/03/01 08:42:45;;;;;;;33.95;16.63;;;1.10;1.00;;;;;;7364701;19;20024;-68
2023/03/01 08:45:18;;;;;;;28.40;15.88;;;1.10;1.00;;;;;;7387591;19;20079;-70
2023/03/01 08:47:50;;;;;;;36.13;17.10;;;1.20;1.00;;;;;;7365991;19;20391;-69
2023/03/01 08:50:20;;;;;;;32.42;16.67;;;1.30;1.00;;;;;;7360423;19;20505;-69
2023/03/01 08:52:50;;;;;;;29.73;16.63;;;1.50;1.00;;;;;;7364354;19;20018;-69
2023/03/01 08:55:20;;;;;;;32.42;16.23;;;1.70;1.00;;;;;;7363232;19;20021;-69
2023/03/01 08:57:49;;;;;;;30.58;16.40;;;1.70;1.00;;;;;;7367123;19;20015;-69
2023/03/01 09:00:20;;;;;;;30.30;16.80;;;1.60;1.00;;;;;;7378423;19;20011;-68
2023/03/01 09:02:54;;;;;;;33.13;16.67;;;1.60;1.00;;;;;;7366900;19;20010;-68
2023/03/01 09:05:24;;;;;;;28.58;15.30;;;1.70;1.00;;;;;;7364693;19;20370;-69
2023/03/01 09:07:53;;;;;;;29.85;15.32;;;2.00;1.00;;;;;;7364099;19;20038;-68
2023/03/01 09:10:23;;;;;;;32.05;16.42;;;2.10;1.00;;;;;;7360191;19;20031;-69
2023/03/01 09:12:54;;;;;;;29.27;16.00;;;2.00;1.00;;;;;;7363672;19;20063;-69
2023/03/01 09:15:23;;;;;;;33.10;17.30;;;2.10;1.00;;;;;;7386602;19;20015;-69
2023/03/01 09:17:56;;;;;;;29.67;16.45;;;2.00;1.00;;;;;;7366226;19;20020;-69
2023/03/01 09:20:26;;;;;;;32.50;16.92;;;2.20;1.00;;;;;;7362601;19;20014;-69
2023/03/01 09:22:55;;;;;;;31.77;15.70;;;2.00;1.00;;;;;;7366893;19;20485;-69
2023/03/01 09:25:25;;;;;;;31.05;16.15;;;2.00;1.00;;;;;;7360269;19;20011;-69
2023/03/01 09:27:56;;;;;;;33.47;15.73;;;2.00;1.00;;;;;;7366161;19;20125;-69
2023/03/01 09:30:25;;;;;;;32.95;16.98;;;2.10;1.00;;;;;;7385916;19;20948;-69
2023/03/01 09:32:59;;;;;;;29.45;16.73;;;2.20;1.00;;;;;;7359440;19;20716;-68
2023/03/01 09:35:29;;;;;;;31.23;15.90;;;2.10;1.00;;;;;;7364087;19;20044;-69
2023/03/01 09:37:58;;;;;;;28.30;16.27;;;2.10;1.00;;;;;;7361263;19;20041;-69
2023/03/01 09:40:30;;;;;;;28.85;16.02;;;2.30;1.00;;;;;;7360851;19;20015;-69
2023/03/01 09:43:11;;;;;;;30.48;16.23;;;2.40;1.00;;;;;;7363721;19;20018;-70
2023/03/01 09:45:43;;;;;;;29.40;15.80;;;2.60;1.00;;;;;;7362683;19;20018;-70
2023/03/01 09:48:21;;;;;;;31.17;17.38;;;2.60;1.00;;;;;;7387513;19;20039;-67
2023/03/01 09:50:52;;;;;;;30.85;16.60;;;2.90;1.00;;;;;;7359598;19;20086;-69
2023/03/01 09:53:25;;;;;;;30.75;16.48;;;2.60;1.00;;;;;;7361766;19;20498;-70
2023/03/01 09:56:01;;;;;;;28.85;15.98;;;2.70;1.00;;;;;;7363049;19;20017;-70
2023/03/01 09:58:44;;;;;;;31.17;16.55;;;2.80;1.00;;;;;;7365064;19;20038;-70
2023/03/01 10:01:31;;;;;;;32.08;16.88;;;2.90;1.00;;;;;;7363813;19;20014;-70
2023/03/01 10:04:26;;;;;;;32.75;16.60;;;3.30;1.00;;;;;;7362954;19;20139;-69
2023/03/01 10:07:08;;;;;;;28.83;15.52;;;3.20;1.00;;;;;;7358757;19;20018;-69
2023/03/01 10:09:40;;;;;;;29.15;15.75;;;3.30;1.00;;;;;;7358015;19;20381;-70
2023/03/01 10:12:13;;;;;;;28.08;16.38;;;3.60;1.00;;;;;;7383827;19;20014;-70
2023/03/01 10:14:53;;;;;;;28.38;16.42;;;3.60;1.00;;;;;;7361412;19;20047;-70
2023/03/01 10:17:36;;;;;;;27.90;15.88;;;3.60;1.00;;;;;;7360216;19;20061;-70
2023/03/01 10:20:26;;;;;;;26.40;15.55;;;3.60;1.00;;;;;;7360903;19;20015;-69
2023/03/01 10:22:56;;;;;;;26.40;15.68;;;3.80;1.00;;;;;;7361159;19;20010;-69
2023/03/01 10:25:42;;;;;;;28.08;16.27;;;3.80;1.00;;;;;;7363290;19;20010;-68
2023/03/01 10:28:19;;;;;;;25.05;15.35;;;3.70;1.00;;;;;;7364950;19;20549;-69
2023/03/01 10:30:49;;;;;;;30.33;17.63;;;3.90;1.00;;;;;;7357666;19;20077;-69
2023/03/01 10:33:24;;;;;;;27.48;15.70;;;4.10;1.00;;;;;;7382926;19;20019;-70
2023/03/01 10:35:56;;;;;;;29.30;15.70;;;4.10;1.00;;;;;;7360864;19;20034;-70
2023/03/01 10:38:29;;;;;;;26.15;14.77;;;4.10;1.00;;;;;;7356153;19;20010;-70
2023/03/01 10:41:01;;;;;;;26.67;15.00;;;4.00;1.00;;;;;;7361513;19;20354;-70
2023/03/01 10:43:45;;;;;;;27.45;16.23;;;4.20;1.00;;;;;;7361724;19;20068;-70
2023/03/01 10:46:26;;;;;;;30.65;16.08;;;4.10;1.00;;;;;;7361537;19;20009;-70
2023/03/01 10:49:14;;;;;;;27.42;15.70;;;4.20;1.00;;;;;;7359138;19;20026;-70
2023/03/01 10:51:48;;;;;;;26.02;15.00;;;4.60;1.00;;;;;;7361087;19;20014;-70
2023/03/01 10:54:21;;;;;;;27.70;15.18;;;4.90;1.00;;;;;;7383912;19;20014;-70
2023/03/01 10:56:53;;;;;;;27.00;15.73;;;4.80;1.00;;;;;;7362472;19;20018;-69
2023/03/01 10:59:29;;;;;;;30.10;15.32;;;4.70;1.00;;;;;;7357124;19;20046;-68
2023/03/01 11:02:17;;;;;;;27.05;15.68;;;4.70;1.00;;;;;;7361174;19;20040;-71
2023/03/01 11:05:02;;;;;;;32.08;15.52;;;4.80;1.00;;;;;;7360873;19;20553;-69
2023/03/01 11:07:49;;;;;;;25.33;15.00;;;5.00;1.00;;;;;;7358798;19;20027;-69
2023/03/01 11:10:24;;;;;;;24.92;14.60;;;5.20;1.00;;;;;;7353322;19;20049;-69
2023/03/01 11:12:55;;;;;;;27.20;14.55;;;5.10;1.00;;;;;;7360430;19;20098;-67
2023/03/01 11:15:28;;;;;;;28.50;16.60;;;4.90;1.00;;;;;;7382023;19;20360;-70
2023/03/01 11:17:59;;;;;;;25.65;15.18;;;4.90;1.00;;;;;;7361336;19;20105;-69
2023/03/01 11:20:43;;;;;;;25.45;14.50;;;4.90;1.00;;;;;;7358068;19;20043;-71
2023/03/01 11:23:17;;;;;;;25.15;15.40;;;5.20;1.00;;;;;;7359431;19;20114;-69
2023/03/01 11:25:54;;;;;;;27.27;15.90;;;5.30;1.00;;;;;;7360370;19;20021;-69
2023/03/01 11:28:25;;;;;;;25.90;14.77;;;5.30;1.00;;;;;;7361078;19;20085;-69
2023/03/01 11:31:00;;;;;;;26.92;15.20;;;5.30;1.00;;;;;;7359021;19;20022;-70
2023/03/01 11:33:46;;;;;;;24.88;14.68;;;5.40;1.00;;;;;;7371185;19;20035;-70
2023/03/01 11:36:29;;;;;;;28.83;14.82;;;5.50;1.00;;;;;;7380248;19;20055;-69
2023/03/01 11:39:06;;;;;;;31.30;15.07;;;5.70;1.00;;;;;;7355937;19;20031;-69
2023/03/01 11:41:39;;;;;;;26.60;14.88;;;5.50;1.00;;;;;;7354542;19;20025;-70
2023/03/01 11:44:16;;;;;;;27.05;14.52;;;5.60;1.00;;;;;;7358727;19;20490;-70
2023/03/01 11:47:17;;;;;;;26.75;15.30;;;5.80;1.00;;;;;;7361012;19;20007;-70
2023/03/01 11:50:07;;;;;;;23.52;14.20;;;5.80;1.00;;;;;;7366424;19;20018;-70
2023/03/01 11:52:49;;;;;;;25.67;15.05;;;5.80;1.00;;;;;;7368905;19;20015;-70
2023/03/01 11:55:34;;;;;;;26.63;14.10;;;5.90;1.00;;;;;;7369131;19;20014;-70
2023/03/01 11:58:09;;;;;;;;;;;6.20;1.00;;;;;;7367779;19;20014;-70
2023/03/01 12:01:15;;;;;;;26.60;14.75;;;6.00;1.00;;;;;;7364060;19;19934;-70
2023/03/01 12:04:06;;;;;;;26.02;14.68;;;5.90;1.00;;;;;;7368030;19;20011;-70
2023/03/01 12:06:49;;;;;;;29.25;15.13;;;6.00;1.00;;;;;;7387670;19;20019;-70
2023/03/01 12:09:49;;;;;;;25.10;14.43;;;6.10;1.00;;;;;;7364730;19;20020;-68
2023/03/01 12:12:40;;;;;;;26.38;15.40;;;6.20;1.00;;;;;;7366894;19;20082;-70
2023/03/01 12:15:42;;;;;;;27.95;15.25;;;6.40;1.00;;;;;;7362212;19;20361;-70
2023/03/01 12:18:36;;;;;;;23.70;14.82;;;6.30;1.00;;;;;;7365437;19;20452;-70
2023/03/01 12:21:16;;;;;;;23.80;14.05;;;6.30;1.00;;;;;;7366483;19;20036;-70
2023/03/01 12:24:17;;;;;;;24.88;14.25;;;6.50;1.00;;;;;;7366843;19;20018;-69
2023/03/01 12:27:00;;;;;;;24.25;13.88;;;6.30;1.00;;;;;;7365773;19;20454;-69
2023/03/01 12:29:41;;;;;;;26.67;15.30;;;6.50;1.00;;;;;;7363424;19;20006;-69
2023/03/01 12:32:22;;;;;;;24.13;14.43;;;6.70;1.00;;;;;;7367094;19;20018;-69
2023/03/01 12:35:06;;;;;;;24.15;15.35;;;6.60;1.00;;;;;;7368374;19;20082;-70
2023/03/01 12:37:52;;;;;;;31.10;15.40;;;6.70;1.00;;;;;;7364878;19;20029;-69
2023/03/01 12:40:39;;;;;;;22.30;14.52;;;6.90;1.00;;;;;;7363763;19;20395;-69
2023/03/01 12:43:21;;;;;;;26.30;15.57;;;6.90;1.00;;;;;;7366710;19;20534;-69
2023/03/01 12:46:07;;;;;;;25.65;14.57;;;6.90;1.00;;;;;;7366121;19;20022;-69
2023/03/01 12:48:48;;;;;;;24.23;15.00;;;6.80;1.00;;;;;;7385678;19;20130;-69
2023/03/01 12:51:23;;;;;;;24.27;14.15;;;6.90;1.00;;;;;;7387039;19;20014;-68
2023/03/01 12:53:55;;;;;;;23.83;14.13;;;7.00;1.00;;;;;;7364298;19;20022;-69
2023/03/01 12:56:28;;;;;;;29.55;15.88;;;6.90;1.00;;;;;;7362995;19;20041;-69
2023/03/01 12:59:05;;;;;;;27.73;16.30;;;6.80;1.00;;;;;;7361251;19;20018;-67
2023/03/01 13:01:48;;;;;;;24.45;15.43;;;7.10;1.00;;;;;;7361882;19;20044;-68
2023/03/01 13:04:28;;;;;;;24.33;14.25;;;7.20;1.00;;;;;;7364063;19;20022;-69
2023/03/01 13:07:18;;;;;;;24.75;14.50;;;7.10;1.00;;;;;;7365027;19;20014;-69
2023/03/01 13:10:01;;;;;;;20.05;13.35;;;7.10;1.00;;;;;;7359984;19;20014;-69
2023/03/01 13:12:55;;;;;;;22.23;13.38;;;7.00;1.00;;;;;;7383830;19;20577;-69
2023/03/01 13:15:39;;;;;;;20.70;13.55;;;7.20;1.00;;;;;;7364559;19;20014;-69